Village Mills, Texas
Current Conditions -  °F | °C
As of 4:15 AM on Thursday 23 Oct 2014 (Local Time) from KBMT Reporting Station
Clear Clear  
Wind Chill: 58°   Ceiling: Unl
Heat Index: 58°   Visibility: 10mi
Dew Point: 53°   Wind: 5mph
Humidity: 83%   Direction: 20°NNE
Pressure: 30.09"   Gusts: NA
Location:  30.49°N, 94.4°W
Report Text: KBMT 230915Z AUTO 02004KT 10SM CLR 14/12 A3009 RMK AO2 T01440115
Loading
Personal Weather Stations






























Interactive Weather Map
Tropical Storm Tracking
New forecast layout! Learn more

10-Day Weather Forecast

Advertisements
Track Severe Weather on mobile